Time;durP1;ratioP1;P1;durP2;ratioP2;P2;SDS_P1;SDS_P2;PMS_P1;PMS_P2;Temp;Humidity;BMP_temperature;BMP_pressure;BME280_temperature;BME280_humidity;BME280_pressure;Samples;Min_cycle;Max_cycle;Signal;HPM_P1;HPM_P2
2023/01/20 00:01:32;;;;;;;32.95;13.38;;;;;;;5.11;61.07;100999.97;4938535;28;119580;-69
2023/01/20 00:03:59;;;;;;;37.17;14.57;;;;;;;5.10;60.90;101006.09;4943309;28;124295;-68
2023/01/20 00:06:27;;;;;;;33.58;14.07;;;;;;;5.08;61.07;101002.66;4947895;28;123057;-68
2023/01/20 00:08:56;;;;;;;36.92;14.30;;;;;;;5.09;60.88;101017.53;4948975;28;119088;-68
2023/01/20 00:11:24;;;;;;;34.05;13.85;;;;;;;5.08;61.24;101018.41;4949001;28;121737;-69
2023/01/20 00:13:55;;;;;;;35.10;13.73;;;;;;;5.09;60.99;101014.91;4949297;28;123813;-68
2023/01/20 00:16:23;;;;;;;32.63;13.32;;;;;;;5.10;61.17;101016.59;4947045;28;124819;-69
2023/01/20 00:18:51;;;;;;;34.38;14.25;;;;;;;5.11;61.15;101020.97;4955404;28;118554;-69
2023/01/20 00:21:19;;;;;;;35.45;13.85;;;;;;;5.10;60.94;101016.59;4928549;28;118499;-69
2023/01/20 00:23:47;;;;;;;38.50;14.98;;;;;;;5.11;60.89;101020.13;4940105;28;123748;-68
2023/01/20 00:26:17;;;;;;;34.72;14.82;;;;;;;5.11;61.10;101023.59;4932933;28;124457;-68
2023/01/20 00:28:44;;;;;;;38.05;13.52;;;;;;;5.12;61.15;101025.31;4948952;28;120610;-69
2023/01/20 00:31:20;;;;;;;34.20;14.93;;;;;;;5.15;60.91;101027.88;4951995;28;119838;-69
2023/01/20 00:33:49;;;;;;;32.13;14.73;;;;;;;5.16;60.89;101027.00;4949926;28;123112;-69
2023/01/20 00:36:19;;;;;;;31.92;14.80;;;;;;;5.16;61.02;101026.13;4959862;28;125211;-69
2023/01/20 00:38:46;;;;;;;37.75;17.23;;;;;;;5.17;61.17;101039.22;4960601;28;119390;-68
2023/01/20 00:41:14;;;;;;;40.70;18.45;;;;;;;5.18;61.09;101035.72;4965313;28;117449;-69
2023/01/20 00:43:42;;;;;;;36.00;17.20;;;;;;;5.15;61.11;101035.78;4962609;28;124079;-68
2023/01/20 00:46:10;;;;;;;38.72;17.85;;;;;;;5.14;60.85;101028.81;4957680;28;122469;-69
2023/01/20 00:48:37;;;;;;;36.13;17.63;;;;;;;5.11;60.92;101028.00;4956146;28;119276;-69
2023/01/20 00:51:06;;;;;;;36.90;16.50;;;;;;;5.09;60.87;101030.66;4948770;28;116939;-69
2023/01/20 00:53:33;;;;;;;34.97;16.90;;;;;;;5.05;61.00;101035.09;4947969;28;124520;-69
2023/01/20 00:56:00;;;;;;;33.75;16.33;;;;;;;5.06;61.07;101035.94;4948159;28;124364;-69
2023/01/20 00:58:27;;;;;;;35.10;15.90;;;;;;;5.04;61.06;101042.97;4947677;28;119641;-69
2023/01/20 01:00:54;;;;;;;33.72;16.25;;;;;;;5.02;61.18;101039.53;4949185;28;119136;-69
2023/01/20 01:03:22;;;;;;;32.95;15.98;;;;;;;5.00;61.33;101041.31;4958196;28;125276;-69
2023/01/20 01:05:49;;;;;;;35.17;16.13;;;;;;;4.98;61.04;101043.97;4949456;28;124004;-69
2023/01/20 01:08:16;;;;;;;34.25;16.38;;;;;;;4.99;61.05;101044.81;4948858;28;119723;-69
2023/01/20 01:10:43;;;;;;;30.25;15.35;;;;;;;4.97;61.34;101057.13;4933234;28;120145;-69
2023/01/20 01:13:10;;;;;;;35.05;16.17;;;;;;;4.97;61.15;101059.75;4946530;28;123710;-69
2023/01/20 01:15:37;;;;;;;33.47;15.85;;;;;;;4.98;61.43;101056.22;4929902;28;125519;-68
2023/01/20 01:18:04;;;;;;;33.10;15.32;;;;;;;4.98;61.27;101053.59;4929930;28;119659;-69
2023/01/20 01:20:32;;;;;;;31.45;15.35;;;;;;;5.00;61.29;101062.31;4948852;28;121597;-69
2023/01/20 01:22:59;;;;;;;33.20;16.02;;;;;;;5.00;61.29;101059.69;4946015;28;125963;-69
2023/01/20 01:25:26;;;;;;;30.10;14.77;;;;;;;5.01;61.46;101058.78;4957030;28;124158;-69
2023/01/20 01:27:53;;;;;;;30.20;13.57;;;;;;;5.01;61.11;101064.03;4933820;28;120289;-70
2023/01/20 01:30:20;;;;;;;29.02;13.63;;;;;;;5.02;61.48;101065.78;4938972;28;118348;-69
2023/01/20 01:32:47;;;;;;;30.85;13.73;;;;;;;5.03;61.51;101062.28;4951734;28;125353;-69
2023/01/20 01:35:14;;;;;;;29.45;14.38;;;;;;;5.03;61.25;101062.28;4955155;28;125398;-69
2023/01/20 01:37:42;;;;;;;27.15;13.27;;;;;;;5.04;61.42;101069.22;4948427;28;119170;-69
2023/01/20 01:40:10;;;;;;;29.50;13.65;;;;;;;5.04;61.15;101070.09;4948139;28;119026;-69
2023/01/20 01:42:37;;;;;;;26.13;12.75;;;;;;;5.03;61.32;101072.78;4946230;28;124483;-69
2023/01/20 01:45:10;;;;;;;26.58;12.38;;;;;;;4.99;61.02;101073.69;4947115;28;124228;-68
2023/01/20 01:47:41;;;;;;;26.80;11.45;;;;;;;4.94;61.34;101072.94;4931010;28;120043;-69
2023/01/20 01:50:16;;;;;;;24.83;11.85;;;;;;;4.92;61.14;101079.97;4944864;28;119009;-69
2023/01/20 01:52:47;;;;;;;25.55;12.10;;;;;;;4.90;61.46;101081.72;4946257;28;124337;-69
2023/01/20 01:55:17;;;;;;;29.42;12.98;;;;;;;4.87;61.42;101078.28;4945756;28;125136;-69
2023/01/20 01:57:46;;;;;;;27.90;12.95;;;;;;;4.86;61.32;101071.31;4946542;28;119407;-68
2023/01/20 02:00:13;;;;;;;28.15;13.52;;;;;;;4.87;61.38;101080.91;4956220;28;119742;-69
2023/01/20 02:02:44;;;;;;;30.65;13.63;;;;;;;4.87;61.51;101088.78;4933764;28;124648;-69
2023/01/20 02:05:13;;;;;;;27.10;13.50;;;;;;;4.89;61.21;101083.50;4945622;28;124661;-69
2023/01/20 02:07:44;;;;;;;30.50;14.38;;;;;;;4.88;61.36;101085.25;4947492;28;121121;-69
2023/01/20 02:10:12;;;;;;;29.27;14.23;;;;;;;4.88;61.34;101085.25;4962011;28;121289;-68
2023/01/20 02:12:41;;;;;;;32.17;15.02;;;;;;;4.90;61.35;101086.97;4945457;28;122896;-69
2023/01/20 02:15:08;;;;;;;31.92;14.52;;;;;;;4.91;61.47;101086.09;4938622;28;123686;-69
2023/01/20 02:17:48;;;;;;;33.13;14.88;;;;;;;4.87;61.60;101094.00;4950735;28;119261;-68
2023/01/20 02:20:34;;;;;;;40.25;16.67;;;;;;;4.87;61.53;101088.78;4945478;28;119408;-69
2023/01/20 02:23:10;;;;;;;38.85;15.90;;;;;;;4.83;61.54;101092.34;4943996;28;124044;-69
2023/01/20 02:25:51;;;;;;;36.55;16.05;;;;;;;4.82;61.61;101095.00;4955852;28;124549;-69
2023/01/20 02:28:42;;;;;;;43.72;17.50;;;;;;;4.80;61.41;101092.41;4937547;28;119754;-69
2023/01/20 02:31:35;;;;;;;43.45;17.80;;;;;;;4.77;61.29;101092.47;4933543;28;120256;-69
2023/01/20 02:34:16;;;;;;;37.83;17.00;;;;;;;4.75;61.21;101094.25;4946189;28;124548;-68
2023/01/20 02:36:54;;;;;;;40.75;17.42;;;;;;;4.73;61.46;101101.28;4929946;28;123317;-69
2023/01/20 02:39:51;;;;;;;43.53;18.92;;;;;;;4.72;61.62;101110.03;4946686;28;119164;-68
2023/01/20 02:42:26;;;;;;;43.25;17.67;;;;;;;4.69;61.57;101104.84;4945240;28;118290;-68
2023/01/20 02:45:12;;;;;;;47.13;17.60;;;;;;;4.66;61.38;101099.63;4953902;28;124351;-68
2023/01/20 02:47:43;;;;;;;43.38;16.80;;;;;;;4.65;61.67;101108.38;4949802;28;123840;-68
2023/01/20 02:50:26;;;;;;;40.72;17.95;;;;;;;4.63;61.53;101100.56;4934912;28;119632;-69
2023/01/20 02:52:58;;;;;;;44.80;18.08;;;;;;;4.63;61.78;101105.81;4957047;28;119603;-68
2023/01/20 02:55:33;;;;;;;41.90;17.90;;;;;;;4.65;61.84;101103.13;4945932;28;124595;-68
2023/01/20 02:58:06;;;;;;;43.47;18.00;;;;;;;4.65;61.58;101111.00;4944939;28;125102;-69
2023/01/20 03:00:39;;;;;;;41.97;17.55;;;;;;;4.65;61.59;101116.25;4929870;28;118615;-68
2023/01/20 03:03:11;;;;;;;45.75;18.60;;;;;;;4.67;61.94;101122.34;4929098;28;120970;-68
2023/01/20 03:05:45;;;;;;;38.35;16.75;;;;;;;4.69;61.73;101120.59;4943673;28;124640;-68
2023/01/20 03:08:14;;;;;;;40.53;16.73;;;;;;;4.71;61.81;101117.91;4944814;28;125241;-68
2023/01/20 03:10:41;;;;;;;44.20;17.33;;;;;;;4.73;61.55;101122.28;4944956;28;119269;-68
2023/01/20 03:13:24;;;;;;;41.63;17.60;;;;;;;4.73;61.75;101117.03;4945314;28;119623;-69
2023/01/20 03:15:59;;;;;;;41.25;17.67;;;;;;;4.74;61.79;101121.34;4944325;28;124077;-69
2023/01/20 03:18:31;;;;;;;39.57;16.90;;;;;;;4.76;61.99;101122.19;4942523;28;124990;-69
2023/01/20 03:21:01;;;;;;;42.97;17.90;;;;;;;4.76;61.78;101116.94;4945678;28;119742;-69
2023/01/20 03:23:33;;;;;;;40.58;17.90;;;;;;;4.76;61.68;101122.19;4946542;28;120717;-69
2023/01/20 03:26:17;;;;;;;40.72;17.02;;;;;;;4.76;61.64;101121.34;4923127;28;98259;-69
2023/01/20 03:28:45;;;;;;;41.47;17.27;;;;;;;4.77;61.60;101129.19;4947931;28;124156;-69
2023/01/20 03:31:41;;;;;;;42.83;16.85;;;;;;;4.78;61.60;101122.19;4948477;28;118979;-69
2023/01/20 03:34:12;;;;;;;46.90;18.40;;;;;;;4.78;61.60;101124.81;4945338;28;119559;-69
2023/01/20 03:36:41;;;;;;;40.28;17.05;;;;;;;4.77;61.73;101123.94;4959532;28;124092;-69
2023/01/20 03:39:09;;;;;;;38.63;15.95;;;;;;;4.76;61.74;101122.19;4957360;28;124223;-69
2023/01/20 03:41:58;;;;;;;39.38;16.48;;;;;;;4.73;61.81;101122.28;4949190;28;119679;-69
2023/01/20 03:44:44;;;;;;;41.28;15.77;;;;;;;4.72;61.62;101120.53;4949260;28;119592;-69
2023/01/20 03:47:26;;;;;;;36.75;15.60;;;;;;;4.72;61.60;101115.28;4949146;28;124421;-69
2023/01/20 03:50:15;;;;;;;30.75;13.35;;;;;;;4.70;61.49;101111.81;4953733;28;123476;-69
2023/01/20 03:52:53;;;;;;;35.42;15.02;;;;;;;4.69;61.53;101123.22;4956228;28;118997;-69
2023/01/20 03:55:33;;;;;;;37.85;15.43;;;;;;;4.70;61.81;101122.31;4953995;28;119954;-69
2023/01/20 03:58:09;;;;;;;32.03;13.65;;;;;;;4.71;61.42;101129.31;4919316;28;124624;-69
2023/01/20 04:00:41;;;;;;;31.15;14.45;;;;;;;4.71;61.57;101145.03;4931509;28;123021;-69
2023/01/20 04:03:15;;;;;;;34.42;15.00;;;;;;;4.70;61.76;101138.03;4947809;28;118644;-68
2023/01/20 04:05:43;;;;;;;33.38;14.32;;;;;;;4.69;61.52;101131.09;4947797;28;120469;-69
2023/01/20 04:08:13;;;;;;;32.63;13.52;;;;;;;4.68;61.71;101143.31;4948337;28;123908;-69
2023/01/20 04:10:44;;;;;;;33.97;14.30;;;;;;;4.68;61.63;101145.09;4948578;28;122959;-69
2023/01/20 04:13:12;;;;;;;34.17;14.00;;;;;;;4.69;61.60;101136.34;4947927;28;119094;-69
2023/01/20 04:15:44;;;;;;;33.70;14.35;;;;;;;4.68;61.60;101145.94;4931456;28;118142;-69
2023/01/20 04:18:20;;;;;;;35.30;14.73;;;;;;;4.68;61.81;101145.09;4946887;28;123929;-69
2023/01/20 04:20:51;;;;;;;33.83;14.50;;;;;;;4.69;61.90;101146.81;4948958;28;124969;-68
2023/01/20 04:23:22;;;;;;;37.10;13.85;;;;;;;4.69;61.48;101146.81;4947866;28;119155;-69
2023/01/20 04:25:49;;;;;;;29.27;13.30;;;;;;;4.69;61.60;101157.31;4946657;28;119608;-69
2023/01/20 04:28:16;;;;;;;31.42;13.90;;;;;;;4.68;61.69;101155.56;4949132;28;123805;-69
2023/01/20 04:30:43;;;;;;;35.05;15.10;;;;;;;4.64;61.57;101148.66;4947343;28;124853;-68
2023/01/20 04:33:11;;;;;;;33.90;13.75;;;;;;;4.63;61.60;101146.91;4949148;28;119872;-69
2023/01/20 04:35:38;;;;;;;35.03;14.38;;;;;;;4.64;61.29;101153.91;4948882;28;119676;-69
2023/01/20 04:38:05;;;;;;;34.00;13.77;;;;;;;4.65;61.61;101155.59;4947671;28;124161;-69
2023/01/20 04:40:32;;;;;;;35.08;14.27;;;;;;;4.66;61.60;101152.09;4945603;28;124735;-69
2023/01/20 04:42:59;;;;;;;36.63;13.93;;;;;;;4.66;61.63;101147.72;4948359;28;120217;-69
2023/01/20 04:45:26;;;;;;;32.30;13.75;;;;;;;4.67;61.81;101149.47;4931447;28;118276;-69
2023/01/20 04:47:53;;;;;;;30.35;14.00;;;;;;;4.69;61.91;101157.31;4931963;28;123104;-69
2023/01/20 04:50:21;;;;;;;34.50;13.75;;;;;;;4.70;61.77;101152.94;4949022;28;124758;-69
2023/01/20 04:52:48;;;;;;;31.33;13.60;;;;;;;4.71;61.51;101159.88;4948527;28;120054;-69
2023/01/20 04:55:15;;;;;;;34.28;14.82;;;;;;;4.71;61.74;101166.03;4948467;28;119668;-69
2023/01/20 04:57:42;;;;;;;33.88;14.05;;;;;;;4.74;61.40;101159.84;4947077;28;123453;-69
2023/01/20 05:00:10;;;;;;;28.40;12.80;;;;;;;4.75;61.81;101157.22;4947518;28;125214;-69
2023/01/20 05:02:37;;;;;;;31.88;13.00;;;;;;;4.76;61.72;101164.19;4947323;28;119158;-70
2023/01/20 05:05:05;;;;;;;35.22;14.20;;;;;;;4.76;61.54;101164.19;4930669;28;118345;-70
2023/01/20 05:07:32;;;;;;;30.48;14.18;;;;;;;4.76;61.51;101164.19;4947312;28;125071;-70
2023/01/20 05:09:59;;;;;;;30.90;13.50;;;;;;;4.78;61.41;101165.00;4947217;28;124622;-70
2023/01/20 05:12:27;;;;;;;33.40;13.98;;;;;;;4.77;61.58;101165.06;4947681;28;119591;-70
2023/01/20 05:14:54;;;;;;;29.48;13.30;;;;;;;4.77;61.54;101162.44;4947759;28;118470;-70
2023/01/20 05:17:21;;;;;;;29.98;12.20;;;;;;;4.78;61.52;101172.88;4948350;28;123676;-70
2023/01/20 05:19:48;;;;;;;32.13;13.48;;;;;;;4.78;61.66;101170.25;4948653;28;124530;-70
2023/01/20 05:22:15;;;;;;;33.72;13.75;;;;;;;4.79;61.56;101173.78;4947732;28;119212;-70
2023/01/20 05:24:42;;;;;;;32.35;14.25;;;;;;;4.77;61.43;101173.78;4947919;28;119246;-70
2023/01/20 05:27:09;;;;;;;32.25;13.68;;;;;;;4.76;61.41;101179.06;4947749;28;123779;-69
2023/01/20 05:29:36;;;;;;;31.67;12.82;;;;;;;4.75;61.48;101188.69;4947600;28;124109;-70
2023/01/20 05:32:03;;;;;;;35.15;14.20;;;;;;;4.76;61.44;101190.41;4948803;28;120152;-69
2023/01/20 05:34:30;;;;;;;30.90;13.43;;;;;;;4.77;61.67;101181.66;4931121;28;119757;-70
2023/01/20 05:36:57;;;;;;;31.45;13.75;;;;;;;4.79;61.57;101179.03;4947988;28;124062;-70
2023/01/20 05:39:25;;;;;;;34.85;14.35;;;;;;;4.79;61.27;101174.63;4947692;28;123787;-70
2023/01/20 05:41:52;;;;;;;34.30;14.15;;;;;;;4.78;61.41;101180.75;4947575;28;119821;-72
2023/01/20 05:44:19;;;;;;;31.05;14.63;;;;;;;4.78;61.35;101182.53;4948680;28;119894;-70
2023/01/20 05:46:46;;;;;;;33.70;14.88;;;;;;;4.78;61.49;101179.91;4947715;28;123880;-70
2023/01/20 05:49:13;;;;;;;32.90;13.75;;;;;;;4.79;61.48;101179.88;4948286;28;123846;-70
2023/01/20 05:51:40;;;;;;;34.20;14.40;;;;;;;4.81;61.65;101183.34;4946267;28;119531;-70
2023/01/20 05:54:07;;;;;;;36.22;14.63;;;;;;;4.83;61.54;101178.94;4947914;28;119673;-70
2023/01/20 05:56:34;;;;;;;35.35;14.80;;;;;;;4.84;61.45;101193.81;4945515;28;124990;-70
2023/01/20 05:59:01;;;;;;;37.28;15.00;;;;;;;4.84;61.19;101185.03;4948239;28;123865;-70
2023/01/20 06:01:28;;;;;;;36.40;15.77;;;;;;;4.84;61.30;101180.69;4946434;28;119494;-69
2023/01/20 06:03:56;;;;;;;38.50;16.55;;;;;;;4.85;61.28;101189.41;4946746;28;118941;-70
2023/01/20 06:06:23;;;;;;;35.50;15.90;;;;;;;4.85;61.44;101199.91;4947200;28;124319;-71
2023/01/20 06:08:51;;;;;;;42.28;16.73;;;;;;;4.86;61.23;101202.53;4929411;28;123888;-70
2023/01/20 06:11:19;;;;;;;38.60;16.33;;;;;;;4.87;61.24;101204.25;4946751;28;119446;-71
2023/01/20 06:13:47;;;;;;;42.17;16.80;;;;;;;4.87;61.22;101201.63;4948079;28;119559;-68
2023/01/20 06:16:16;;;;;;;38.38;16.58;;;;;;;4.86;61.16;101202.53;4947079;28;123212;-68
2023/01/20 06:18:44;;;;;;;39.97;16.27;;;;;;;4.86;61.24;101194.66;4946679;28;124991;-68
2023/01/20 06:21:11;;;;;;;37.30;16.50;;;;;;;4.84;61.41;101199.06;4945769;28;121308;-68
2023/01/20 06:23:38;;;;;;;36.67;16.23;;;;;;;4.84;61.34;101198.16;4945571;28;121624;-68
2023/01/20 06:26:09;;;;;;;38.20;15.85;;;;;;;4.82;61.17;101200.84;4946973;28;123901;-68
2023/01/20 06:28:36;;;;;;;38.45;16.48;;;;;;;4.80;61.45;101202.63;4946234;28;124870;-68
2023/01/20 06:31:14;;;;;;;34.63;15.10;;;;;;;4.78;61.35;101209.63;4946838;28;119475;-69
2023/01/20 06:33:42;;;;;;;35.88;15.05;;;;;;;4.76;61.26;101200.91;4946731;28;119837;-68
2023/01/20 06:36:15;;;;;;;33.83;15.00;;;;;;;4.75;61.14;101208.84;4945512;28;124210;-68
2023/01/20 06:38:47;;;;;;;33.65;15.30;;;;;;;4.73;61.09;101211.47;4947258;28;124296;-69
2023/01/20 06:41:15;;;;;;;34.50;15.52;;;;;;;4.73;61.28;101206.22;4945865;28;119906;-68
2023/01/20 06:43:42;;;;;;;37.72;15.35;;;;;;;4.74;61.42;101213.19;4945735;28;120110;-68
2023/01/20 06:46:11;;;;;;;36.88;14.65;;;;;;;4.76;61.12;101216.66;4944709;28;123309;-68
2023/01/20 06:48:39;;;;;;;42.05;16.70;;;;;;;4.77;61.37;101215.78;4946157;28;122942;-68
2023/01/20 06:51:10;;;;;;;40.45;16.65;;;;;;;4.77;61.25;101218.41;4947335;28;117967;-68
2023/01/20 06:53:37;;;;;;;40.63;16.95;;;;;;;4.79;61.37;101227.13;4947595;28;120094;-69
2023/01/20 06:56:04;;;;;;;43.17;17.83;;;;;;;4.80;61.40;101222.72;4945980;28;124818;-68
2023/01/20 06:58:32;;;;;;;41.13;16.92;;;;;;;4.78;61.24;101225.38;4946865;28;123872;-68
2023/01/20 07:01:07;;;;;;;37.75;16.85;;;;;;;4.77;61.28;101233.28;4947163;28;119625;-69
2023/01/20 07:03:35;;;;;;;37.50;16.45;;;;;;;4.75;61.20;101240.31;4931773;28;119860;-69
2023/01/20 07:06:21;;;;;;;45.40;17.63;;;;;;;4.73;61.39;101235.09;4947822;28;124738;-69
2023/01/20 07:08:48;;;;;;;;;;;;;;;4.71;61.41;101239.50;4948630;28;124351;-69
2023/01/20 07:11:15;;;;;;;29.15;10.95;;;;;;;4.70;61.32;101232.50;4948645;28;120513;-69
2023/01/20 07:13:43;;;;;;;28.20;10.77;;;;;;;4.70;61.40;101243.00;4950024;28;120629;-69
2023/01/20 07:16:10;;;;;;;29.52;10.95;;;;;;;4.70;61.23;101248.25;4947772;28;123618;-69
2023/01/20 07:18:42;;;;;;;30.38;11.05;;;;;;;4.68;61.13;101245.63;4948056;28;124028;-69
2023/01/20 07:21:11;;;;;;;29.13;10.55;;;;;;;4.69;61.41;101241.28;4952642;28;119446;-70
2023/01/20 07:23:38;;;;;;;33.25;11.25;;;;;;;4.70;61.46;101242.13;4948626;28;119730;-69
2023/01/20 07:26:08;;;;;;;30.02;10.27;;;;;;;4.71;61.55;101249.09;4956345;28;124900;-69
2023/01/20 07:28:36;;;;;;;30.23;11.00;;;;;;;4.70;61.19;101248.25;4953907;28;124306;-70
2023/01/20 07:31:04;;;;;;;31.67;10.63;;;;;;;4.70;61.41;101250.88;4941008;28;119338;-69
2023/01/20 07:33:32;;;;;;;33.60;10.55;;;;;;;4.71;61.41;101257.84;4946587;28;120188;-70
2023/01/20 07:36:00;;;;;;;34.75;10.82;;;;;;;4.72;61.37;101267.44;4964763;28;123139;-70
2023/01/20 07:38:28;;;;;;;29.70;10.40;;;;;;;4.72;61.32;101262.19;4948793;28;125843;-70
2023/01/20 07:40:57;;;;;;;24.88;9.82;;;;;;;4.74;61.43;101273.53;4954899;28;119381;-70
2023/01/20 07:43:25;;;;;;;26.27;9.98;;;;;;;4.77;61.27;101275.28;4966908;28;119711;-70
2023/01/20 07:46:00;;;;;;;30.55;10.25;;;;;;;4.77;61.56;101265.63;4961355;28;124728;-70
2023/01/20 07:48:32;;;;;;;30.40;10.95;;;;;;;4.80;61.47;101264.72;4965316;28;123478;-70
2023/01/20 07:51:05;;;;;;;29.25;10.25;;;;;;;4.81;61.17;101261.22;4961459;28;119111;-70
2023/01/20 07:53:34;;;;;;;38.58;11.55;;;;;;;4.82;61.42;101258.56;4949127;28;119986;-70
2023/01/20 07:56:07;;;;;;;29.85;11.32;;;;;;;4.84;61.35;101262.03;4960179;28;123023;-70
2023/01/20 07:58:34;;;;;;;28.42;10.43;;;;;;;4.87;61.24;101267.22;4950510;28;122022;-70
2023/01/20 08:01:10;;;;;;;32.75;10.82;;;;;;;4.87;61.13;101272.47;4963621;28;119681;-69
2023/01/20 08:03:37;;;;;;;;;;;;;;;4.89;61.23;101280.31;4964092;28;120137;-70
2023/01/20 08:06:05;;;;;;;29.20;10.35;;;;;;;4.91;61.13;101277.69;4963408;28;124382;-70
2023/01/20 08:08:33;;;;;;;28.80;10.55;;;;;;;4.92;60.94;101274.19;4961139;28;124853;-70
2023/01/20 08:11:01;;;;;;;26.58;9.82;;;;;;;4.94;61.28;101275.03;4947295;28;119448;-70
2023/01/20 08:13:29;;;;;;;26.15;10.10;;;;;;;4.94;61.20;101288.16;4928812;28;117970;-70
2023/01/20 08:16:02;;;;;;;25.23;9.40;;;;;;;4.95;61.07;101289.88;4954972;28;124375;-71
2023/01/20 08:18:30;;;;;;;29.95;10.43;;;;;;;4.96;61.24;101296.88;4962357;28;123935;-70
2023/01/20 08:20:57;;;;;;;25.45;10.15;;;;;;;4.97;61.28;101282.84;4964291;28;118597;-70
2023/01/20 08:23:24;;;;;;;31.67;10.20;;;;;;;4.99;61.17;101291.56;4952710;28;118666;-69
2023/01/20 08:26:00;;;;;;;24.95;9.45;;;;;;;5.00;60.99;101282.81;4958422;28;124264;-70
2023/01/20 08:28:29;;;;;;;27.88;10.02;;;;;;;5.00;60.97;101283.66;4935672;28;125851;-70
2023/01/20 08:31:09;;;;;;;28.13;10.27;;;;;;;5.01;61.08;101284.53;4952353;28;119221;-70
2023/01/20 08:33:37;;;;;;;33.78;11.25;;;;;;;5.01;61.19;101274.03;4943927;28;119138;-70
2023/01/20 08:36:10;;;;;;;28.63;10.05;;;;;;;5.01;61.35;101274.03;4954453;28;124057;-70
2023/01/20 08:38:38;;;;;;;26.67;9.80;;;;;;;5.03;61.22;101272.28;4918874;28;124776;-70
2023/01/20 08:41:12;;;;;;;30.42;10.52;;;;;;;5.02;61.25;101270.53;4949344;28;119314;-73
2023/01/20 08:43:39;;;;;;;27.17;9.73;;;;;;;5.01;61.15;101268.78;4966020;28;120566;-70
2023/01/20 08:46:10;;;;;;;27.95;10.35;;;;;;;5.01;60.92;101268.78;4962198;28;123591;-70
2023/01/20 08:48:39;;;;;;;27.05;10.10;;;;;;;5.01;61.18;101266.16;4962380;28;125071;-70
2023/01/20 08:51:09;;;;;;;27.17;9.48;;;;;;;5.02;61.20;101275.78;4938264;28;119838;-70
2023/01/20 08:53:36;;;;;;;30.45;10.63;;;;;;;5.04;61.41;101274.00;4947913;28;120179;-70
2023/01/20 08:56:04;;;;;;;27.10;10.27;;;;;;;5.06;61.37;101277.47;4952041;28;125655;-70
2023/01/20 08:58:31;;;;;;;27.65;9.90;;;;;;;5.07;61.26;101279.19;4958430;28;124442;-70
2023/01/20 09:00:58;;;;;;;30.85;10.98;;;;;;;5.07;61.10;101280.06;4940361;28;119520;-69
2023/01/20 09:03:26;;;;;;;27.30;10.45;;;;;;;5.09;61.38;101287.91;4952181;28;119118;-70
2023/01/20 09:05:53;;;;;;;31.05;11.80;;;;;;;5.12;61.28;101287.84;4940153;28;122408;-69
2023/01/20 09:08:20;;;;;;;26.45;10.32;;;;;;;5.12;61.22;101298.34;4967472;28;124508;-69
2023/01/20 09:10:47;;;;;;;27.88;10.85;;;;;;;5.15;61.13;101303.56;4962652;28;119212;-69
2023/01/20 09:13:14;;;;;;;31.85;10.85;;;;;;;5.16;61.35;101304.44;4965650;28;118739;-69
2023/01/20 09:15:41;;;;;;;27.60;10.32;;;;;;;5.17;61.17;101316.69;4951217;28;123517;-72
2023/01/20 09:18:08;;;;;;;30.23;10.70;;;;;;;5.18;61.39;101314.03;4952544;28;123661;-72
2023/01/20 09:20:36;;;;;;;27.42;10.23;;;;;;;5.20;61.07;101312.25;4958754;28;119617;-70
2023/01/20 09:23:03;;;;;;;26.73;10.55;;;;;;;5.22;61.45;101313.09;4948923;28;119359;-71
2023/01/20 09:25:30;;;;;;;29.42;11.38;;;;;;;5.23;61.18;101317.44;4944222;28;123802;-71
2023/01/20 09:28:00;;;;;;;26.17;10.90;;;;;;;5.23;60.99;101312.19;4951044;28;123773;-71
2023/01/20 09:30:27;;;;;;;24.75;9.77;;;;;;;5.23;61.18;101312.19;4942456;28;119135;-71
2023/01/20 09:32:56;;;;;;;27.70;9.88;;;;;;;5.24;61.21;101313.94;4953492;28;118758;-72
2023/01/20 09:35:24;;;;;;;28.05;10.70;;;;;;;5.26;61.24;101314.78;4957141;28;124033;-72
2023/01/20 09:43:52;;;;;;;21.95;9.73;;;;;;;5.25;61.09;101315.69;4952989;28;120506;-72
2023/01/20 09:46:36;;;;;;;23.20;9.90;;;;;;;5.26;61.27;101322.66;4953559;28;124551;-71
2023/01/20 09:55:12;;;;;;;25.63;9.18;;;;;;;5.28;61.20;101319.16;4943663;28;118282;-72
2023/01/20 09:57:47;;;;;;;21.92;9.50;;;;;;;5.30;61.57;101317.38;4938823;28;123746;-72
2023/01/20 10:00:19;;;;;;;20.63;8.65;;;;;;;5.30;61.31;101317.38;4945130;28;124414;-72
2023/01/20 10:02:52;;;;;;;21.88;8.77;;;;;;;5.33;61.27;101312.03;4945493;28;118800;-72
2023/01/20 10:05:22;;;;;;;23.33;9.05;;;;;;;5.35;61.39;101312.88;4962024;28;120206;-73
2023/01/20 10:08:04;;;;;;;20.92;8.70;;;;;;;5.36;61.57;101325.16;4962558;28;125049;-72
2023/01/20 10:10:38;;;;;;;20.58;8.18;;;;;;;5.39;61.22;101327.72;4955164;28;125041;-72
2023/01/20 10:13:14;;;;;;;18.58;7.88;;;;;;;5.43;61.59;101324.16;4961134;28;120078;-71
2023/01/20 10:15:47;;;;;;;19.60;8.43;;;;;;;5.45;61.29;101327.63;4961564;28;120078;-72
2023/01/20 10:18:24;;;;;;;19.67;8.38;;;;;;;5.47;61.20;101325.84;4960163;28;123966;-72
2023/01/20 10:21:11;;;;;;;19.98;8.63;;;;;;;5.50;61.23;101331.06;4956802;28;124961;-71
2023/01/20 10:23:57;;;;;;;18.45;7.22;;;;;;;5.52;61.49;101338.88;4960635;28;119403;-72
2023/01/20 10:26:24;;;;;;;18.80;8.13;;;;;;;5.54;61.15;101343.25;4927594;28;120095;-71
2023/01/20 10:29:02;;;;;;;17.23;7.53;;;;;;;5.56;61.42;101348.47;4961489;28;123026;-72
2023/01/20 10:31:36;;;;;;;18.95;7.75;;;;;;;5.58;61.31;101344.94;4959053;28;123590;-72
2023/01/20 10:34:17;;;;;;;19.80;7.90;;;;;;;5.58;61.09;101339.66;4948507;28;120483;-72
2023/01/20 10:37:05;;;;;;;18.58;7.63;;;;;;;5.59;61.15;101346.63;4940037;28;120580;-72
2023/01/20 10:39:48;;;;;;;19.33;7.68;;;;;;;5.58;61.02;101344.94;4959825;28;123595;-72
2023/01/20 10:42:17;;;;;;;16.98;7.70;;;;;;;5.58;61.00;101344.06;4939052;28;125714;-72
2023/01/20 10:44:46;;;;;;;18.25;7.60;;;;;;;5.58;61.03;101344.94;4952839;28;119200;-72
2023/01/20 10:47:32;;;;;;;18.92;7.80;;;;;;;5.58;61.08;101341.44;4936456;28;120687;-72
2023/01/20 10:50:17;;;;;;;;;;;;;;;5.56;61.25;101341.47;4945930;28;123363;-72
2023/01/20 10:53:06;;;;;;;16.88;7.28;;;;;;;5.55;61.26;101339.72;4938562;28;125632;-72
2023/01/20 10:56:04;;;;;;;17.27;7.65;;;;;;;5.52;61.38;101334.53;4949915;28;119762;-72
2023/01/20 10:58:36;;;;;;;16.08;7.15;;;;;;;5.52;61.24;101334.53;4966372;28;119746;-72
2023/01/20 11:01:08;;;;;;;18.67;6.97;;;;;;;5.53;61.28;101330.97;4951947;28;125849;-72
2023/01/20 11:03:39;;;;;;;17.00;7.25;;;;;;;5.53;61.24;101336.25;4951095;28;122983;-72
2023/01/20 11:06:18;;;;;;;13.93;6.85;;;;;;;5.55;61.34;101338.84;4944090;28;119310;-72
2023/01/20 11:08:45;;;;;;;12.55;6.20;;;;;;;5.54;61.26;101332.72;4954021;28;118647;-72
2023/01/20 11:11:17;;;;;;;14.27;6.18;;;;;;;5.55;61.11;101341.47;4938617;28;126068;-72
2023/01/20 11:13:45;;;;;;;10.90;5.75;;;;;;;5.56;61.12;101341.47;4933595;28;123222;-72
2023/01/20 11:16:19;;;;;;;14.82;6.43;;;;;;;5.58;61.40;101337.03;4945763;28;119640;-72
2023/01/20 11:19:05;;;;;;;14.00;6.22;;;;;;;5.60;61.26;101332.63;4929967;28;118784;-72
2023/01/20 11:21:35;;;;;;;14.77;6.53;;;;;;;5.61;61.05;101339.63;4945860;28;123505;-72
2023/01/20 11:24:38;;;;;;;15.82;6.47;;;;;;;5.61;61.44;101334.38;4949143;28;122847;-72
2023/01/20 11:27:10;;;;;;;13.32;6.32;;;;;;;5.62;61.25;101336.09;4943960;28;120290;-71
2023/01/20 11:29:59;;;;;;;14.45;6.43;;;;;;;5.61;61.12;101339.63;4931433;28;121738;-72
2023/01/20 11:32:31;;;;;;;14.48;6.38;;;;;;;5.63;61.01;101335.22;4931426;28;123058;-72
2023/01/20 11:35:00;;;;;;;12.90;6.32;;;;;;;5.65;61.39;101345.66;4933181;28;124650;-71
2023/01/20 11:37:36;;;;;;;12.85;6.43;;;;;;;5.65;61.41;101341.31;4956906;28;119948;-72
2023/01/20 11:40:18;;;;;;;13.73;6.63;;;;;;;5.69;61.41;101351.75;4943862;28;120406;-72
2023/01/20 11:42:47;;;;;;;15.25;6.65;;;;;;;5.72;61.01;101351.72;4946274;28;124461;-73